Time;durP1;ratioP1;P1;durP2;ratioP2;P2;SDS_P1;SDS_P2;PMS_P1;PMS_P2;Temp;Humidity;BMP_temperature;BMP_pressure;BME280_temperature;BME280_humidity;BME280_pressure;Samples;Min_cycle;Max_cycle;Signal;HPM_P1;HPM_P2
2022/01/25 00:08:20;;;;;;;7.20;5.25;;;;;;;;;;5012395;28;20022;-51
2022/01/25 00:31:28;;;;;;;7.75;5.20;;;;;;;;;;5024106;28;20037;-51
2022/01/25 00:33:34;;;;;;;6.65;4.80;;;;;;;;;;5005635;28;20180;-52
2022/01/25 00:36:00;;;;;;;6.90;4.83;;;;;;;;;;4997912;28;20116;-53
2022/01/25 00:38:26;;;;;;;6.85;4.90;;;;;;;;;;5009528;28;20273;-53
2022/01/25 00:40:51;;;;;;;6.10;4.67;;;;;;;;;;5022053;28;20132;-52
2022/01/25 00:43:16;;;;;;;7.65;4.88;;;;;;;;;;5023771;28;20268;-52
2022/01/25 00:45:42;;;;;;;5.78;4.47;;;;;;;;;;5024018;28;20022;-51
2022/01/25 00:48:16;;;;;;;6.15;4.72;;;;;;;;;;5024085;28;20120;-55
2022/01/25 00:50:42;;;;;;;6.40;4.60;;;;;;;;;;5024044;28;20410;-52
2022/01/25 00:55:33;;;;;;;6.80;4.67;;;;;;;;;;5011532;28;20837;-51
2022/01/25 00:57:59;;;;;;;5.75;4.20;;;;;;;;;;5013029;28;20322;-51
2022/01/25 01:00:24;;;;;;;6.38;4.40;;;;;;;;;;5017583;28;20029;-53
2022/01/25 01:02:49;;;;;;;6.20;4.60;;;;;;;;;;5023475;28;20045;-53
2022/01/25 01:05:14;;;;;;;5.95;4.65;;;;;;;;;;5023452;28;20292;-53
2022/01/25 01:07:41;;;;;;;5.67;4.27;;;;;;;;;;5023987;28;20032;-53
2022/01/25 01:10:07;;;;;;;6.57;4.90;;;;;;;;;;5023599;28;20357;-52
2022/01/25 01:15:16;;;;;;;5.95;4.40;;;;;;;;;;5023223;28;20032;-52
2022/01/25 01:31:16;;;;;;;7.05;4.50;;;;;;;;;;5022677;28;20087;-52
2022/01/25 01:43:54;;;;;;;5.78;4.00;;;;;;;;;;5022655;28;20025;-52
2022/01/25 01:46:36;;;;;;;4.82;3.72;;;;;;;;;;5022333;28;20029;-52
2022/01/25 01:49:03;;;;;;;5.70;3.80;;;;;;;;;;5022236;28;20488;-51
2022/01/25 01:51:34;;;;;;;6.18;4.20;;;;;;;;;;5022642;28;20025;-52
2022/01/25 01:54:03;;;;;;;5.50;4.10;;;;;;;;;;5011514;28;20133;-53
2022/01/25 01:56:29;;;;;;;5.30;4.00;;;;;;;;;;5017533;28;20032;-53
2022/01/25 01:58:56;;;;;;;6.10;3.92;;;;;;;;;;5003324;28;20042;-52
2022/01/25 02:01:24;;;;;;;5.75;3.97;;;;;;;;;;5022633;28;20037;-52
2022/01/25 02:03:49;;;;;;;5.53;3.72;;;;;;;;;;5022168;28;20484;-52
2022/01/25 02:06:14;;;;;;;5.77;3.90;;;;;;;;;;5022452;28;20107;-52
2022/01/25 02:08:39;;;;;;;5.77;3.80;;;;;;;;;;5022822;28;20018;-52
2022/01/25 02:11:04;;;;;;;5.72;4.18;;;;;;;;;;5022732;28;20418;-51
2022/01/25 02:13:30;;;;;;;6.30;4.57;;;;;;;;;;5019674;28;20049;-52
2022/01/25 02:15:57;;;;;;;6.18;4.07;;;;;;;;;;5016667;28;20268;-52
2022/01/25 02:23:31;;;;;;;5.60;3.95;;;;;;;;;;5026007;28;20051;-52
2022/01/25 02:25:57;;;;;;;5.50;3.78;;;;;;;;;;5026695;28;20033;-52
2022/01/25 02:28:26;;;;;;;5.82;4.10;;;;;;;;;;5026025;28;20053;-52
2022/01/25 02:30:51;;;;;;;5.00;3.72;;;;;;;;;;5025930;28;20821;-53
2022/01/25 02:33:16;;;;;;;5.65;3.85;;;;;;;;;;5021519;28;20112;-52
2022/01/25 02:35:42;;;;;;;5.20;3.60;;;;;;;;;;5014527;28;20029;-51
2022/01/25 02:38:07;;;;;;;5.70;3.83;;;;;;;;;;5014228;28;20061;-51
2022/01/25 02:40:33;;;;;;;5.63;3.90;;;;;;;;;;5021108;28;20086;-51
2022/01/25 02:42:58;;;;;;;6.15;3.65;;;;;;;;;;5025726;28;20283;-52
2022/01/25 02:45:29;;;;;;;5.32;3.88;;;;;;;;;;5025867;28;20064;-51
2022/01/25 02:50:39;;;;;;;6.28;3.75;;;;;;;;;;5026100;28;20405;-51
2022/01/25 02:53:04;;;;;;;5.10;3.47;;;;;;;;;;5025716;28;20356;-52
2022/01/25 02:55:30;;;;;;;5.47;3.50;;;;;;;;;;5025516;28;20255;-52
2022/01/25 02:57:56;;;;;;;4.85;3.45;;;;;;;;;;5015760;28;20280;-52
2022/01/25 03:00:21;;;;;;;4.17;3.40;;;;;;;;;;5018987;28;20029;-53
2022/01/25 03:02:46;;;;;;;5.05;3.40;;;;;;;;;;5025019;28;20279;-52
2022/01/25 03:05:12;;;;;;;4.93;3.42;;;;;;;;;;5025591;28;20871;-51
2022/01/25 03:07:38;;;;;;;6.03;3.67;;;;;;;;;;5025759;28;20052;-52
2022/01/25 03:10:03;;;;;;;5.65;3.55;;;;;;;;;;5025854;28;20276;-53
2022/01/25 03:12:32;;;;;;;4.82;3.58;;;;;;;;;;5025304;28;20186;-51
2022/01/25 03:15:21;;;;;;;5.30;3.42;;;;;;;;;;4990954;28;20459;-52
2022/01/25 03:17:48;;;;;;;4.93;3.33;;;;;;;;;;5016701;28;20470;-51
2022/01/25 03:20:33;;;;;;;5.28;3.58;;;;;;;;;;5017109;28;20025;-52
2022/01/25 03:23:04;;;;;;;5.00;3.20;;;;;;;;;;5023571;28;20399;-51
2022/01/25 03:25:30;;;;;;;5.03;3.75;;;;;;;;;;5024472;28;20427;-51
2022/01/25 03:27:57;;;;;;;4.63;3.40;;;;;;;;;;5024463;28;20025;-51
2022/01/25 03:30:22;;;;;;;4.95;3.47;;;;;;;;;;5024380;28;20264;-52
2022/01/25 03:32:48;;;;;;;4.57;3.27;;;;;;;;;;5002930;28;20029;-52
2022/01/25 03:35:13;;;;;;;4.70;3.40;;;;;;;;;;5008242;28;20273;-52
2022/01/25 03:37:38;;;;;;;5.03;3.43;;;;;;;;;;5017117;28;20269;-52
2022/01/25 03:40:04;;;;;;;5.07;3.47;;;;;;;;;;5014991;28;20303;-52
2022/01/25 03:42:29;;;;;;;4.82;3.10;;;;;;;;;;5023875;28;20029;-52
2022/01/25 03:44:56;;;;;;;5.13;3.38;;;;;;;;;;5023960;28;20025;-52
2022/01/25 03:47:30;;;;;;;4.50;3.20;;;;;;;;;;5024141;28;20476;-51
2022/01/25 03:49:56;;;;;;;4.30;3.40;;;;;;;;;;5024122;28;20508;-52
2022/01/25 03:52:27;;;;;;;4.57;3.33;;;;;;;;;;5024175;28;20388;-52
2022/01/25 03:54:52;;;;;;;5.72;3.55;;;;;;;;;;5007046;28;20279;-54
2022/01/25 03:57:18;;;;;;;4.55;3.35;;;;;;;;;;5023885;28;20021;-53
2022/01/25 03:59:43;;;;;;;5.13;3.43;;;;;;;;;;5023777;28;20460;-53
2022/01/25 04:02:08;;;;;;;4.47;3.15;;;;;;;;;;5023744;28;20348;-53
2022/01/25 04:04:35;;;;;;;4.90;3.28;;;;;;;;;;5023844;28;20467;-51
2022/01/25 04:07:07;;;;;;;4.60;3.28;;;;;;;;;;5023352;28;20046;-52
2022/01/25 04:09:33;;;;;;;4.65;3.03;;;;;;;;;;5002756;28;20285;-51
2022/01/25 04:11:58;;;;;;;5.03;3.22;;;;;;;;;;5013551;28;20916;-51
2022/01/25 04:14:23;;;;;;;4.80;3.25;;;;;;;;;;5010327;28;20032;-52
2022/01/25 04:17:00;;;;;;;4.10;3.20;;;;;;;;;;5019899;28;20029;-51
2022/01/25 04:24:55;;;;;;;4.28;2.88;;;;;;;;;;5023629;28;20275;-52
2022/01/25 04:27:20;;;;;;;4.32;2.83;;;;;;;;;;5022839;28;20052;-51
2022/01/25 04:29:45;;;;;;;5.22;3.20;;;;;;;;;;5023367;28;20514;-52
2022/01/25 04:32:13;;;;;;;5.23;3.03;;;;;;;;;;5023254;28;20036;-51
2022/01/25 04:34:42;;;;;;;4.60;3.20;;;;;;;;;;5007928;28;20786;-52
2022/01/25 04:51:12;;;;;;;4.70;3.35;;;;;;;;;;5023484;28;20091;-52
2022/01/25 04:54:26;;;;;;;5.53;3.92;;;;;;;;;;5015774;28;20033;-51
2022/01/25 04:56:34;;;;;;;5.53;3.53;;;;;;;;;;5008008;28;20547;-51
2022/01/25 05:05:05;;;;;;;5.10;3.30;;;;;;;;;;4941924;29;20050;-51
2022/01/25 05:10:03;;;;;;;5.57;3.63;;;;;;;;;;5022309;28;20095;-51
2022/01/25 05:12:39;;;;;;;5.43;3.47;;;;;;;;;;5022571;28;20312;-51
2022/01/25 05:18:09;;;;;;;5.00;3.00;;;;;;;;;;4975709;28;20046;-51
2022/01/25 05:23:18;;;;;;;4.68;3.20;;;;;;;;;;5022383;28;20087;-52
2022/01/25 05:25:43;;;;;;;4.33;3.20;;;;;;;;;;5022284;28;20033;-52
2022/01/25 05:28:08;;;;;;;4.75;3.45;;;;;;;;;;5022014;28;20344;-52
2022/01/25 05:30:34;;;;;;;3.90;3.40;;;;;;;;;;5022232;28;20029;-51
2022/01/25 05:32:59;;;;;;;4.78;3.42;;;;;;;;;;5020614;28;20755;-51
2022/01/25 05:35:24;;;;;;;5.28;3.60;;;;;;;;;;5007092;28;20090;-51
2022/01/25 05:37:50;;;;;;;5.25;3.88;;;;;;;;;;5013989;28;20507;-51
2022/01/25 05:40:18;;;;;;;4.90;3.42;;;;;;;;;;5013942;28;20079;-51
2022/01/25 05:42:50;;;;;;;4.90;3.28;;;;;;;;;;5022548;28;20068;-51
2022/01/25 05:47:44;;;;;;;4.60;3.35;;;;;;;;;;5028148;28;20036;-50
2022/01/25 05:50:09;;;;;;;4.72;3.63;;;;;;;;;;5028926;28;20017;-51
2022/01/25 05:52:35;;;;;;;5.55;3.65;;;;;;;;;;5028550;28;20033;-54
2022/01/25 05:55:01;;;;;;;4.15;3.45;;;;;;;;;;5028459;28;20124;-53
2022/01/25 05:57:27;;;;;;;5.28;4.07;;;;;;;;;;5028477;28;20079;-51
2022/01/25 05:59:53;;;;;;;4.43;3.53;;;;;;;;;;5028265;28;20110;-53
2022/01/25 06:02:20;;;;;;;4.38;3.28;;;;;;;;;;5028465;28;20300;-52
2022/01/25 06:04:45;;;;;;;4.88;3.78;;;;;;;;;;5028430;28;20167;-51
2022/01/25 06:07:11;;;;;;;4.35;3.38;;;;;;;;;;5028129;28;20136;-53
2022/01/25 06:09:36;;;;;;;4.43;3.20;;;;;;;;;;5028390;28;20057;-51
2022/01/25 06:12:01;;;;;;;5.10;3.90;;;;;;;;;;5028611;28;20119;-51
2022/01/25 06:14:26;;;;;;;4.97;3.85;;;;;;;;;;5015450;28;20057;-52
2022/01/25 06:16:52;;;;;;;5.20;3.53;;;;;;;;;;5025062;28;20053;-52
2022/01/25 06:19:17;;;;;;;4.82;3.58;;;;;;;;;;5010751;28;20292;-51
2022/01/25 06:21:42;;;;;;;4.70;3.67;;;;;;;;;;5021002;28;20102;-52
2022/01/25 06:24:07;;;;;;;5.00;3.65;;;;;;;;;;5021506;28;20355;-51
2022/01/25 06:26:33;;;;;;;5.83;3.70;;;;;;;;;;4994053;28;20033;-50
2022/01/25 06:29:00;;;;;;;5.80;3.90;;;;;;;;;;5017229;28;20790;-52
2022/01/25 06:31:26;;;;;;;6.57;3.80;;;;;;;;;;5013628;28;20337;-51
2022/01/25 06:33:52;;;;;;;4.60;3.72;;;;;;;;;;5008101;28;20099;-53
2022/01/25 06:36:18;;;;;;;5.15;3.75;;;;;;;;;;5013298;28;20104;-53
2022/01/25 06:38:44;;;;;;;4.82;3.78;;;;;;;;;;5008111;28;20480;-51
2022/01/25 06:41:10;;;;;;;5.07;3.40;;;;;;;;;;4991145;28;20115;-52
2022/01/25 06:43:36;;;;;;;4.10;3.30;;;;;;;;;;5008802;28;20682;-52
2022/01/25 06:46:03;;;;;;;5.05;3.70;;;;;;;;;;5009910;28;20030;-52
2022/01/25 06:48:28;;;;;;;5.20;3.85;;;;;;;;;;5008399;28;20543;-52
2022/01/25 06:50:54;;;;;;;5.60;4.28;;;;;;;;;;5009236;28;20021;-52
2022/01/25 06:53:19;;;;;;;5.80;3.80;;;;;;;;;;5007148;28;20033;-52
2022/01/25 06:55:44;;;;;;;5.15;3.70;;;;;;;;;;4994001;28;21572;-53
2022/01/25 06:58:09;;;;;;;5.80;4.20;;;;;;;;;;5015729;28;20116;-52
2022/01/25 07:00:35;;;;;;;4.70;3.60;;;;;;;;;;5019113;28;20308;-52
2022/01/25 07:03:00;;;;;;;5.80;3.95;;;;;;;;;;5012708;28;20382;-54
2022/01/25 07:05:26;;;;;;;5.47;4.30;;;;;;;;;;5004170;28;20112;-53
2022/01/25 07:07:52;;;;;;;5.45;3.80;;;;;;;;;;4988698;28;20261;-53
2022/01/25 07:10:17;;;;;;;5.38;4.10;;;;;;;;;;5006185;28;20389;-53
2022/01/25 07:12:43;;;;;;;4.90;3.70;;;;;;;;;;5005401;28;20088;-53
2022/01/25 07:15:08;;;;;;;6.03;4.15;;;;;;;;;;5004843;28;20033;-54
2022/01/25 07:17:33;;;;;;;4.57;3.70;;;;;;;;;;5005268;28;20111;-53
2022/01/25 07:19:59;;;;;;;5.73;3.97;;;;;;;;;;5005579;28;20030;-54
2022/01/25 07:22:24;;;;;;;4.55;3.53;;;;;;;;;;5004883;28;20348;-53
2022/01/25 07:24:49;;;;;;;6.37;4.03;;;;;;;;;;5004854;28;20100;-54
2022/01/25 07:27:14;;;;;;;5.03;4.18;;;;;;;;;;5009810;28;20306;-53
2022/01/25 07:29:43;;;;;;;5.77;4.13;;;;;;;;;;5004730;28;20087;-53
2022/01/25 07:32:08;;;;;;;5.03;3.88;;;;;;;;;;5010288;28;20295;-54
2022/01/25 07:34:34;;;;;;;5.53;4.20;;;;;;;;;;5006759;28;20065;-54
2022/01/25 07:36:59;;;;;;;6.17;4.30;;;;;;;;;;5006459;28;20261;-54
2022/01/25 07:39:26;;;;;;;5.20;4.10;;;;;;;;;;5006269;28;20357;-53
2022/01/25 07:41:56;;;;;;;5.47;4.35;;;;;;;;;;5005944;28;20570;-54
2022/01/25 07:44:26;;;;;;;;;;;;;;;;;;5003987;28;20105;-53
2022/01/25 07:46:51;;;;;;;5.15;4.13;;;;;;;;;;5005820;28;19906;-53
2022/01/25 07:49:16;;;;;;;5.93;4.33;;;;;;;;;;5005246;28;20502;-52
2022/01/25 07:51:42;;;;;;;6.67;4.70;;;;;;;;;;5005547;28;20014;-53
2022/01/25 07:54:07;;;;;;;6.47;4.20;;;;;;;;;;5005484;28;20044;-52
2022/01/25 07:56:32;;;;;;;6.43;4.43;;;;;;;;;;5006749;28;20850;-53
2022/01/25 07:58:57;;;;;;;5.73;4.67;;;;;;;;;;5004018;28;20723;-53
2022/01/25 08:01:24;;;;;;;5.20;4.10;;;;;;;;;;5009488;28;20299;-53
2022/01/25 08:03:49;;;;;;;5.30;4.18;;;;;;;;;;5007402;28;20280;-51
2022/01/25 08:06:14;;;;;;;5.38;3.88;;;;;;;;;;5003832;28;20041;-51
2022/01/25 08:08:39;;;;;;;6.63;4.67;;;;;;;;;;5003725;28;20049;-52
2022/01/25 08:11:05;;;;;;;6.10;4.38;;;;;;;;;;5021231;28;20272;-53
2022/01/25 08:13:30;;;;;;;5.40;4.43;;;;;;;;;;5015317;28;20026;-53
2022/01/25 08:15:55;;;;;;;6.13;4.32;;;;;;;;;;5004557;28;20779;-53
2022/01/25 08:18:21;;;;;;;6.13;4.40;;;;;;;;;;5003211;28;20044;-54
2022/01/25 08:20:46;;;;;;;6.93;4.20;;;;;;;;;;5018856;28;20033;-53
2022/01/25 08:23:12;;;;;;;6.30;4.50;;;;;;;;;;5022880;28;21042;-53
2022/01/25 08:25:37;;;;;;;6.15;4.38;;;;;;;;;;5008444;28;20440;-53
2022/01/25 08:28:02;;;;;;;6.07;4.57;;;;;;;;;;5008872;28;20014;-53
2022/01/25 08:30:28;;;;;;;5.80;4.45;;;;;;;;;;5005606;28;20257;-52
2022/01/25 08:32:53;;;;;;;5.63;4.60;;;;;;;;;;5007663;28;20416;-52
2022/01/25 08:35:18;;;;;;;5.70;4.23;;;;;;;;;;5022389;28;20487;-52
2022/01/25 08:37:44;;;;;;;6.45;4.47;;;;;;;;;;5017676;28;20414;-53
2022/01/25 08:40:09;;;;;;;6.88;4.53;;;;;;;;;;5004051;28;20480;-52
2022/01/25 08:42:35;;;;;;;6.32;4.63;;;;;;;;;;5016598;28;20064;-52
2022/01/25 08:45:01;;;;;;;6.20;4.27;;;;;;;;;;5022913;28;20063;-52
2022/01/25 08:47:26;;;;;;;6.13;4.15;;;;;;;;;;5014859;28;20655;-52
2022/01/25 08:49:51;;;;;;;5.50;4.10;;;;;;;;;;5007811;28;20017;-52
2022/01/25 08:52:16;;;;;;;6.27;4.60;;;;;;;;;;5007983;28;20040;-53
2022/01/25 08:54:41;;;;;;;6.27;4.20;;;;;;;;;;5007638;28;20275;-52
2022/01/25 08:57:07;;;;;;;6.77;4.87;;;;;;;;;;5006463;28;20033;-53
2022/01/25 08:59:32;;;;;;;6.22;4.78;;;;;;;;;;5006509;28;20267;-53
2022/01/25 09:01:57;;;;;;;5.15;4.22;;;;;;;;;;5006177;28;20547;-53
2022/01/25 09:04:23;;;;;;;5.93;4.57;;;;;;;;;;5005821;28;20514;-53
2022/01/25 09:06:48;;;;;;;6.60;4.40;;;;;;;;;;5006208;28;20065;-53
2022/01/25 09:09:13;;;;;;;6.37;4.47;;;;;;;;;;5003657;28;20424;-52
2022/01/25 09:11:39;;;;;;;7.13;4.60;;;;;;;;;;5005617;28;20276;-52
2022/01/25 09:14:05;;;;;;;6.85;4.80;;;;;;;;;;5003414;28;20022;-52
2022/01/25 09:16:31;;;;;;;5.75;4.47;;;;;;;;;;5009766;28;20052;-52
2022/01/25 09:18:56;;;;;;;6.35;4.43;;;;;;;;;;4984620;28;20018;-52
2022/01/25 09:21:21;;;;;;;5.43;4.40;;;;;;;;;;5008563;28;20040;-51
2022/01/25 09:23:47;;;;;;;6.10;4.57;;;;;;;;;;5008925;28;20041;-52
2022/01/25 09:26:12;;;;;;;5.47;4.23;;;;;;;;;;5006720;28;20261;-53
2022/01/25 09:28:37;;;;;;;5.37;4.60;;;;;;;;;;5001644;28;20276;-52
2022/01/25 09:31:02;;;;;;;5.63;4.57;;;;;;;;;;5006040;28;20265;-52
2022/01/25 09:33:28;;;;;;;5.53;4.10;;;;;;;;;;5009844;28;20021;-52
2022/01/25 09:35:53;;;;;;;6.38;4.72;;;;;;;;;;5007822;28;20300;-52
2022/01/25 09:38:18;;;;;;;5.75;4.80;;;;;;;;;;5003433;28;20044;-52
2022/01/25 09:40:44;;;;;;;5.70;4.60;;;;;;;;;;5006683;28;20022;-51
2022/01/25 09:43:09;;;;;;;6.83;4.97;;;;;;;;;;5019668;28;20095;-51
2022/01/25 09:45:34;;;;;;;6.30;4.93;;;;;;;;;;5022593;28;20299;-52
2022/01/25 09:48:00;;;;;;;6.53;4.65;;;;;;;;;;5014896;28;20021;-52
2022/01/25 09:50:26;;;;;;;6.63;4.60;;;;;;;;;;5014035;28;20108;-52
2022/01/25 09:52:51;;;;;;;7.35;5.25;;;;;;;;;;5022667;28;20490;-53
2022/01/25 09:55:18;;;;;;;6.30;4.63;;;;;;;;;;5022148;28;20028;-51
2022/01/25 09:57:43;;;;;;;6.70;4.53;;;;;;;;;;5016542;28;20314;-53
2022/01/25 10:00:09;;;;;;;7.90;5.00;;;;;;;;;;4990239;28;20065;-53
2022/01/25 10:02:40;;;;;;;7.47;4.75;;;;;;;;;;5014920;28;20064;-52
2022/01/25 10:05:15;;;;;;;8.35;4.90;;;;;;;;;;5021952;28;20045;-53
2022/01/25 10:07:41;;;;;;;6.63;4.65;;;;;;;;;;5017119;28;20036;-52
2022/01/25 10:10:06;;;;;;;7.97;4.63;;;;;;;;;;5003542;28;20029;-53
2022/01/25 10:12:32;;;;;;;8.13;4.72;;;;;;;;;;5004912;28;20018;-53
2022/01/25 10:15:00;;;;;;;6.07;4.63;;;;;;;;;;5006159;28;20080;-52
2022/01/25 10:17:31;;;;;;;6.93;4.80;;;;;;;;;;5003631;28;20301;-54
2022/01/25 10:19:56;;;;;;;8.75;4.50;;;;;;;;;;5009578;28;20491;-53
2022/01/25 10:22:22;;;;;;;5.83;4.50;;;;;;;;;;5022089;28;20037;-54
2022/01/25 10:24:47;;;;;;;6.75;4.80;;;;;;;;;;5021218;28;20028;-53
2022/01/25 10:27:13;;;;;;;5.97;4.70;;;;;;;;;;5021074;28;20029;-53
2022/01/25 10:29:40;;;;;;;5.65;4.25;;;;;;;;;;5007266;28;20021;-52
2022/01/25 10:32:09;;;;;;;6.95;4.70;;;;;;;;;;5022235;28;20184;-53
2022/01/25 10:34:36;;;;;;;6.10;4.45;;;;;;;;;;5026021;28;20112;-53
2022/01/25 10:37:09;;;;;;;5.85;4.18;;;;;;;;;;5015248;28;20025;-53
2022/01/25 10:39:34;;;;;;;7.15;4.90;;;;;;;;;;5011667;28;20045;-54
2022/01/25 10:42:09;;;;;;;5.72;4.25;;;;;;;;;;5004693;28;20485;-53
2022/01/25 10:44:45;;;;;;;6.65;4.78;;;;;;;;;;5010434;28;20428;-54
2022/01/25 10:47:10;;;;;;;6.00;4.57;;;;;;;;;;5020848;28;20029;-54
2022/01/25 10:49:42;;;;;;;6.03;4.97;;;;;;;;;;5009589;28;20103;-53
2022/01/25 10:52:07;;;;;;;6.68;4.82;;;;;;;;;;5025666;28;20358;-53
2022/01/25 10:54:37;;;;;;;6.60;4.73;;;;;;;;;;5025694;28;20109;-53
2022/01/25 10:57:02;;;;;;;6.45;4.40;;;;;;;;;;5025550;28;20034;-54
2022/01/25 10:59:29;;;;;;;5.83;4.37;;;;;;;;;;5009191;28;20709;-53
2022/01/25 11:02:01;;;;;;;6.75;5.07;;;;;;;;;;5006247;28;20439;-53
2022/01/25 11:04:29;;;;;;;6.25;5.07;;;;;;;;;;5006818;28;20094;-53
2022/01/25 11:07:01;;;;;;;7.22;5.00;;;;;;;;;;5006717;28;20050;-54
2022/01/25 11:09:29;;;;;;;6.47;5.13;;;;;;;;;;5007408;28;20060;-53
2022/01/25 11:11:55;;;;;;;6.47;4.72;;;;;;;;;;5011375;28;20029;-54
2022/01/25 11:17:04;;;;;;;7.32;5.30;;;;;;;;;;5024790;28;20020;-53
2022/01/25 11:19:30;;;;;;;7.07;5.03;;;;;;;;;;5005305;28;20331;-53
2022/01/25 11:21:55;;;;;;;5.95;4.60;;;;;;;;;;5011587;28;20148;-53
2022/01/25 11:24:21;;;;;;;6.43;5.00;;;;;;;;;;5015572;28;20530;-54
2022/01/25 11:26:47;;;;;;;6.63;4.85;;;;;;;;;;5025058;28;20025;-54
2022/01/25 11:29:13;;;;;;;6.82;5.07;;;;;;;;;;5007326;28;20034;-54
2022/01/25 11:31:38;;;;;;;6.03;4.90;;;;;;;;;;5024184;28;20017;-55
2022/01/25 11:34:05;;;;;;;7.03;4.95;;;;;;;;;;5003460;28;20022;-54
2022/01/25 11:36:41;;;;;;;6.75;4.80;;;;;;;;;;5006824;28;20041;-53
2022/01/25 11:39:08;;;;;;;7.03;4.75;;;;;;;;;;5004135;28;20026;-53
2022/01/25 11:41:33;;;;;;;6.28;4.78;;;;;;;;;;4986017;28;20045;-53
2022/01/25 11:44:08;;;;;;;5.90;4.67;;;;;;;;;;4987285;28;20026;-53
2022/01/25 11:46:34;;;;;;;5.93;4.80;;;;;;;;;;5008457;28;20033;-53
2022/01/25 11:49:00;;;;;;;7.57;4.90;;;;;;;;;;5008378;28;20030;-52
2022/01/25 11:51:25;;;;;;;8.68;5.03;;;;;;;;;;5010139;28;20030;-53
2022/01/25 11:53:51;;;;;;;6.23;5.53;;;;;;;;;;5010597;28;20013;-56
2022/01/25 11:56:16;;;;;;;7.07;5.20;;;;;;;;;;5003279;28;20809;-54
2022/01/25 11:58:41;;;;;;;6.78;5.03;;;;;;;;;;4986013;28;20089;-52
2022/01/25 12:01:33;;;;;;;5.93;4.68;;;;;;;;;;5007652;28;20411;-54
2022/01/25 12:03:59;;;;;;;6.85;5.28;;;;;;;;;;5005785;28;20040;-54
2022/01/25 12:06:31;;;;;;;6.53;5.00;;;;;;;;;;5007058;28;20605;-53
2022/01/25 12:11:35;;;;;;;6.00;4.80;;;;;;;;;;5008865;28;20484;-53
2022/01/25 12:14:20;;;;;;;7.65;5.20;;;;;;;;;;5007222;28;20444;-54
2022/01/25 12:16:50;;;;;;;6.68;4.63;;;;;;;;;;5003108;28;20533;-54
2022/01/25 12:19:16;;;;;;;6.90;5.05;;;;;;;;;;5002766;28;20021;-54
2022/01/25 12:21:47;;;;;;;6.15;4.90;;;;;;;;;;5010681;28;20207;-55
2022/01/25 12:24:17;;;;;;;7.05;5.25;;;;;;;;;;5003367;28;20085;-53
2022/01/25 12:26:55;;;;;;;6.00;4.47;;;;;;;;;;5007570;28;20025;-54
2022/01/25 12:29:29;;;;;;;6.05;4.68;;;;;;;;;;5007505;28;20534;-54
2022/01/25 12:31:55;;;;;;;7.60;4.93;;;;;;;;;;5008754;28;20030;-55
2022/01/25 12:34:23;;;;;;;6.70;4.90;;;;;;;;;;5002542;28;20424;-58
2022/01/25 12:36:49;;;;;;;6.57;5.32;;;;;;;;;;5003666;28;20801;-54
2022/01/25 12:39:15;;;;;;;6.72;5.05;;;;;;;;;;5003615;28;20418;-52
2022/01/25 12:41:41;;;;;;;6.88;5.50;;;;;;;;;;5005839;28;20124;-53
2022/01/25 12:44:07;;;;;;;7.60;5.80;;;;;;;;;;5006293;28;20108;-54
2022/01/25 12:46:34;;;;;;;7.00;4.75;;;;;;;;;;5013858;28;20033;-54
2022/01/25 12:49:00;;;;;;;6.45;5.18;;;;;;;;;;5022955;28;20070;-52
2022/01/25 12:51:29;;;;;;;6.70;5.32;;;;;;;;;;5023012;28;20491;-55
2022/01/25 12:53:55;;;;;;;7.82;5.60;;;;;;;;;;5010565;28;20017;-54
2022/01/25 12:56:24;;;;;;;6.55;5.43;;;;;;;;;;5001454;28;20196;-53
2022/01/25 12:58:51;;;;;;;7.53;5.60;;;;;;;;;;5003144;28;20098;-53
2022/01/25 13:01:18;;;;;;;6.65;5.20;;;;;;;;;;5005086;28;20076;-53
2022/01/25 13:03:44;;;;;;;7.03;5.38;;;;;;;;;;5006267;28;20025;-54
2022/01/25 13:06:09;;;;;;;7.53;5.72;;;;;;;;;;5022666;28;20328;-54
2022/01/25 13:08:35;;;;;;;6.93;5.40;;;;;;;;;;5022897;28;20347;-53
2022/01/25 13:11:12;;;;;;;7.68;5.88;;;;;;;;;;5008159;28;20383;-54
2022/01/25 13:13:45;;;;;;;7.07;5.32;;;;;;;;;;5007385;28;20057;-53
2022/01/25 13:16:10;;;;;;;8.05;5.55;;;;;;;;;;5002888;28;20010;-53
2022/01/25 13:18:38;;;;;;;6.67;5.67;;;;;;;;;;5003990;28;20026;-52
2022/01/25 13:21:05;;;;;;;7.07;6.13;;;;;;;;;;4986425;28;20033;-54
2022/01/25 13:23:31;;;;;;;6.90;5.30;;;;;;;;;;5007714;28;20149;-53
2022/01/25 13:26:14;;;;;;;8.43;6.30;;;;;;;;;;5012660;28;20484;-55
2022/01/25 13:28:54;;;;;;;7.35;5.90;;;;;;;;;;5007605;28;20440;-53
2022/01/25 13:31:20;;;;;;;6.72;5.78;;;;;;;;;;5004804;28;20022;-54
2022/01/25 13:33:45;;;;;;;7.40;5.75;;;;;;;;;;5007775;28;20446;-52
2022/01/25 13:36:14;;;;;;;7.07;5.47;;;;;;;;;;5002044;28;20408;-54
2022/01/25 13:38:40;;;;;;;7.82;5.95;;;;;;;;;;5012363;28;20038;-54
2022/01/25 13:41:20;;;;;;;7.22;5.55;;;;;;;;;;5022152;28;20102;-54
2022/01/25 13:46:18;;;;;;;7.90;5.78;;;;;;;;;;5011543;28;20032;-54
2022/01/25 13:48:43;;;;;;;8.68;6.70;;;;;;;;;;5003887;28;20419;-53
2022/01/25 13:51:09;;;;;;;7.15;6.03;;;;;;;;;;5003194;28;20141;-54
2022/01/25 13:53:35;;;;;;;7.70;6.35;;;;;;;;;;5019791;28;20096;-55
2022/01/25 13:56:01;;;;;;;7.15;6.07;;;;;;;;;;5003314;28;20080;-54
2022/01/25 13:58:26;;;;;;;8.20;5.97;;;;;;;;;;5011283;28;20013;-55
2022/01/25 14:00:52;;;;;;;7.60;5.90;;;;;;;;;;5022276;28;20478;-55
2022/01/25 14:03:17;;;;;;;8.80;5.85;;;;;;;;;;5022074;28;20112;-53
2022/01/25 14:05:43;;;;;;;8.80;5.88;;;;;;;;;;4997770;28;20111;-53
2022/01/25 14:08:08;;;;;;;7.13;5.70;;;;;;;;;;4984947;28;20457;-53
2022/01/25 14:10:33;;;;;;;6.50;5.38;;;;;;;;;;4986786;28;20029;-54
2022/01/25 14:23:55;;;;;;;7.13;5.90;;;;;;;;;;4986682;28;20030;-53
2022/01/25 14:26:20;;;;;;;7.05;5.43;;;;;;;;;;4986481;28;20023;-54
2022/01/25 14:28:54;;;;;;;7.50;6.00;;;;;;;;;;4986721;28;20030;-54
2022/01/25 14:31:23;;;;;;;7.88;5.80;;;;;;;;;;4973757;28;20026;-53
2022/01/25 14:33:55;;;;;;;7.13;5.57;;;;;;;;;;4992985;28;20169;-53
2022/01/25 14:36:21;;;;;;;7.00;6.03;;;;;;;;;;5001855;28;20444;-54
2022/01/25 14:38:47;;;;;;;7.40;5.88;;;;;;;;;;4989541;28;20033;-52
2022/01/25 14:41:13;;;;;;;7.32;5.78;;;;;;;;;;5005884;28;20049;-55
2022/01/25 14:43:39;;;;;;;6.90;5.63;;;;;;;;;;5003234;28;20022;-54
2022/01/25 14:46:04;;;;;;;8.50;5.75;;;;;;;;;;4999122;28;20108;-54
2022/01/25 14:48:34;;;;;;;8.70;6.20;;;;;;;;;;5005437;28;20041;-54
2022/01/25 14:51:00;;;;;;;7.40;5.68;;;;;;;;;;5005551;28;20276;-54
2022/01/25 14:53:25;;;;;;;8.05;6.18;;;;;;;;;;5005529;28;20036;-54
2022/01/25 14:55:52;;;;;;;8.07;6.33;;;;;;;;;;5005682;28;20026;-54
2022/01/25 15:00:55;;;;;;;9.30;6.07;;;;;;;;;;5005433;28;20403;-53
2022/01/25 15:03:21;;;;;;;8.45;6.18;;;;;;;;;;4987659;28;20367;-53
2022/01/25 15:05:46;;;;;;;8.38;6.03;;;;;;;;;;4998906;28;20061;-54
2022/01/25 15:08:12;;;;;;;7.15;5.82;;;;;;;;;;5015582;28;20056;-53
2022/01/25 15:10:43;;;;;;;7.20;5.70;;;;;;;;;;4988089;28;20010;-54
2022/01/25 15:13:08;;;;;;;7.13;5.80;;;;;;;;;;4991699;28;20053;-52
2022/01/25 15:15:46;;;;;;;6.78;5.70;;;;;;;;;;5004319;28;20029;-53
2022/01/25 15:18:11;;;;;;;7.03;5.65;;;;;;;;;;5006334;28;20063;-54
2022/01/25 15:20:37;;;;;;;6.88;5.60;;;;;;;;;;5009997;28;20042;-53
2022/01/25 15:23:03;;;;;;;7.30;5.80;;;;;;;;;;5010628;28;20104;-57
2022/01/25 15:25:28;;;;;;;6.95;5.80;;;;;;;;;;5008467;28;20746;-54
2022/01/25 15:27:54;;;;;;;7.83;5.67;;;;;;;;;;5008261;28;20018;-54
2022/01/25 15:30:20;;;;;;;7.78;5.93;;;;;;;;;;5008484;28;20022;-54
2022/01/25 15:32:45;;;;;;;8.68;6.03;;;;;;;;;;5012774;28;20035;-55
2022/01/25 15:35:11;;;;;;;7.30;5.50;;;;;;;;;;5005884;28;20088;-53
2022/01/25 15:37:37;;;;;;;7.47;5.73;;;;;;;;;;5003876;28;20022;-53
2022/01/25 15:40:03;;;;;;;7.65;5.95;;;;;;;;;;5005544;28;20261;-52
2022/01/25 15:42:30;;;;;;;8.50;5.63;;;;;;;;;;5013884;28;20095;-52
2022/01/25 15:44:56;;;;;;;6.93;5.38;;;;;;;;;;5016831;28;20051;-53
2022/01/25 15:47:21;;;;;;;7.18;5.43;;;;;;;;;;5032510;28;20105;-54
2022/01/25 15:49:47;;;;;;;8.00;6.07;;;;;;;;;;5029401;28;20745;-52
2022/01/25 15:52:12;;;;;;;7.38;5.35;;;;;;;;;;4986900;28;20432;-52
2022/01/25 15:54:37;;;;;;;8.07;5.90;;;;;;;;;;5020698;28;20021;-52
2022/01/25 15:57:03;;;;;;;9.30;5.80;;;;;;;;;;5003860;28;20108;-53
2022/01/25 15:59:29;;;;;;;7.72;5.68;;;;;;;;;;5004025;28;20049;-53
2022/01/25 16:01:55;;;;;;;7.57;5.60;;;;;;;;;;5008698;28;20559;-52
2022/01/25 16:04:20;;;;;;;8.45;5.40;;;;;;;;;;5014139;28;20487;-52
2022/01/25 16:06:46;;;;;;;8.23;5.70;;;;;;;;;;5010677;28;20049;-52
2022/01/25 16:09:11;;;;;;;7.85;5.78;;;;;;;;;;5008474;28;20043;-52
2022/01/25 16:11:36;;;;;;;7.53;5.18;;;;;;;;;;5010840;28;20476;-52
2022/01/25 16:14:02;;;;;;;7.80;5.38;;;;;;;;;;5015999;28;20100;-51
2022/01/25 16:16:27;;;;;;;7.22;5.53;;;;;;;;;;5009306;28;20026;-52
2022/01/25 16:18:52;;;;;;;9.07;6.23;;;;;;;;;;5008133;28;20021;-53
2022/01/25 16:21:18;;;;;;;7.97;5.97;;;;;;;;;;5007696;28;20896;-55
2022/01/25 16:23:43;;;;;;;9.68;6.38;;;;;;;;;;5004352;28;20717;-56
2022/01/25 16:26:13;;;;;;;7.93;6.57;;;;;;;;;;5016675;28;20029;-54
2022/01/25 16:28:38;;;;;;;10.05;6.30;;;;;;;;;;5012435;28;20778;-54
2022/01/25 16:31:10;;;;;;;8.85;6.95;;;;;;;;;;5023146;28;20097;-54
2022/01/25 16:33:37;;;;;;;9.63;6.75;;;;;;;;;;5013536;28;20037;-53
2022/01/25 16:36:02;;;;;;;9.00;6.50;;;;;;;;;;5002880;28;20277;-54
2022/01/25 16:38:28;;;;;;;8.57;6.68;;;;;;;;;;5007041;28;20306;-54
2022/01/25 16:40:53;;;;;;;10.13;6.97;;;;;;;;;;5006218;28;20014;-53
2022/01/25 16:43:18;;;;;;;8.18;6.60;;;;;;;;;;5022618;28;20037;-53